createdAt,value
2016-12-03T00:00:01.895Z,19.62
2016-12-03T00:01:01.873Z,19.61
2016-12-03T00:02:01.857Z,19.62
2016-12-03T00:03:02.056Z,19.58
2016-12-03T00:04:01.825Z,19.61
2016-12-03T00:05:01.495Z,19.58
2016-12-03T00:06:02.218Z,19.62
2016-12-03T00:07:01.773Z,19.57
2016-12-03T00:08:01.752Z,19.62
2016-12-03T00:09:01.950Z,19.61
2016-12-03T00:10:01.423Z,19.6
2016-12-03T00:11:01.392Z,19.57
2016-12-03T00:12:01.057Z,19.58
2016-12-03T00:13:01.361Z,19.55
2016-12-03T00:14:01.660Z,19.6
2016-12-03T00:15:01.641Z,19.57
2016-12-03T00:16:01.630Z,19.61
2016-12-03T00:17:01.298Z,19.52
2016-12-03T00:18:01.591Z,19.65
2016-12-03T00:19:16.361Z,19.53
2016-12-03T00:20:01.240Z,19.61
2016-12-03T00:21:01.541Z,19.53
2016-12-03T00:22:01.208Z,19.55
2016-12-03T00:23:01.540Z,19.68
2016-12-03T00:24:01.497Z,19.62
2016-12-03T00:25:01.151Z,19.58
2016-12-03T00:26:01.142Z,19.61
2016-12-03T00:27:01.441Z,19.55
2016-12-03T00:28:01.470Z,19.52
2016-12-03T00:29:01.092Z,19.57
2016-12-03T00:30:01.401Z,19.57
2016-12-03T00:31:01.060Z,19.52
2016-12-03T00:32:01.039Z,19.53
2016-12-03T00:33:01.332Z,19.58
2016-12-03T00:34:01.322Z,19.57
2016-12-03T00:35:01.303Z,19.49
2016-12-03T00:36:00.971Z,19.55
2016-12-03T00:37:01.270Z,19.42
2016-12-03T00:38:01.255Z,19.46
2016-12-03T00:39:01.238Z,19.42
2016-12-03T00:40:01.251Z,19.42
2016-12-03T00:41:01.209Z,19.45
2016-12-03T00:42:01.184Z,19.46
2016-12-03T00:43:01.225Z,19.46
2016-12-03T00:44:01.156Z,19.47
2016-12-03T00:45:01.140Z,19.49
2016-12-03T00:46:01.123Z,19.4
2016-12-03T00:47:01.104Z,19.43
2016-12-03T00:48:01.087Z,19.52
2016-12-03T00:49:01.069Z,19.43
2016-12-03T00:50:01.061Z,19.4
2016-12-03T00:51:01.035Z,19.38
2016-12-03T00:52:00.714Z,19.34
2016-12-03T00:53:01.005Z,19.45
2016-12-03T00:54:00.985Z,19.46
2016-12-03T00:55:00.985Z,19.4
2016-12-03T00:56:00.637Z,19.43
2016-12-03T00:57:00.938Z,19.4
2016-12-03T00:58:00.922Z,19.4
2016-12-03T00:59:00.905Z,19.34
2016-12-03T01:00:00.886Z,19.31
2016-12-03T01:01:00.871Z,19.28
2016-12-03T01:02:00.854Z,19.31
2016-12-03T01:03:00.836Z,19.32
2016-12-03T01:04:00.827Z,19.32
2016-12-03T01:05:00.804Z,19.27
2016-12-03T01:06:00.789Z,19.25
2016-12-03T01:07:00.771Z,19.32
2016-12-03T01:08:00.758Z,19.3
2016-12-03T01:09:00.733Z,19.25
2016-12-03T01:10:00.716Z,19.28
2016-12-03T01:11:00.704Z,19.3
2016-12-03T01:12:00.695Z,19.27
2016-12-03T01:13:00.354Z,19.25
2016-12-03T01:14:00.655Z,19.3
2016-12-03T01:15:00.691Z,19.16
2016-12-03T01:16:00.616Z,19.2
2016-12-03T01:17:00.620Z,19.23
2016-12-03T01:18:00.268Z,19.25
2016-12-03T01:19:00.250Z,19.17
2016-12-03T01:20:00.241Z,19.21
2016-12-03T01:21:00.746Z,19.24
2016-12-03T01:22:00.574Z,19.24
2016-12-03T01:23:00.552Z,19.28
2016-12-03T01:24:00.483Z,19.13
2016-12-03T01:25:00.467Z,19.15
2016-12-03T01:26:00.132Z,19.23
2016-12-03T01:27:00.437Z,19.12
2016-12-03T01:28:00.102Z,19.16
2016-12-03T01:29:00.414Z,19.1
2016-12-03T01:30:00.069Z,19.1
2016-12-03T01:31:00.049Z,19.16
2016-12-03T01:32:00.353Z,19.09
2016-12-03T01:33:00.014Z,19.09
2016-12-03T01:34:00.312Z,18.99
2016-12-03T01:35:00.325Z,19.06
2016-12-03T01:35:59.961Z,18.97
2016-12-03T01:36:59.954Z,19.01
2016-12-03T01:38:00.245Z,19.06
2016-12-03T01:38:59.916Z,19.1
2016-12-03T01:39:59.900Z,19.07
2016-12-03T01:41:00.195Z,19.06
2016-12-03T01:42:00.208Z,19.01
2016-12-03T01:43:00.165Z,19.01
2016-12-03T01:44:00.144Z,19.02
2016-12-03T01:45:00.132Z,19.01
2016-12-03T01:45:59.793Z,18.99
2016-12-03T01:47:00.130Z,18.97
2016-12-03T01:48:00.079Z,19.01
2016-12-03T01:49:00.062Z,19.05
2016-12-03T01:49:59.723Z,18.97
2016-12-03T01:51:00.028Z,18.96
2016-12-03T01:52:00.022Z,18.97
2016-12-03T01:53:00.000Z,18.93
2016-12-03T01:53:59.988Z,18.94
2016-12-03T01:54:59.957Z,18.91
2016-12-03T01:55:59.943Z,18.91
2016-12-03T01:56:59.928Z,18.87
2016-12-03T01:57:59.907Z,18.97
2016-12-03T01:58:59.578Z,18.91
2016-12-03T01:59:59.558Z,18.83
2016-12-03T02:00:59.856Z,18.94
2016-12-03T02:01:59.838Z,18.96
2016-12-03T02:02:59.821Z,18.93
2016-12-03T02:03:59.802Z,18.97
2016-12-03T02:04:59.476Z,18.83
2016-12-03T02:05:59.779Z,18.91
2016-12-03T02:06:59.754Z,18.84
2016-12-03T02:07:59.763Z,18.87
2016-12-03T02:08:59.722Z,18.87
2016-12-03T02:09:59.721Z,18.87
2016-12-03T02:10:59.378Z,18.75
2016-12-03T02:11:59.674Z,18.9
2016-12-03T02:12:59.361Z,18.72
2016-12-03T02:13:59.632Z,18.72
2016-12-03T02:14:59.301Z,18.89
2016-12-03T02:15:59.603Z,18.72
2016-12-03T02:16:59.588Z,18.84
2016-12-03T02:17:59.567Z,18.78
2016-12-03T02:18:59.232Z,18.83
2016-12-03T02:19:59.536Z,18.74
2016-12-03T02:20:59.517Z,18.75
2016-12-03T02:21:59.502Z,18.84
2016-12-03T02:22:59.478Z,18.79
2016-12-03T02:23:59.469Z,18.82
2016-12-03T02:24:59.126Z,18.71
2016-12-03T02:25:59.113Z,18.82
2016-12-03T02:26:59.660Z,18.78
2016-12-03T02:27:59.408Z,18.78
2016-12-03T02:28:59.383Z,18.72
2016-12-03T02:29:58.732Z,18.78
2016-12-03T02:30:59.063Z,18.75
2016-12-03T02:31:59.326Z,18.78
2016-12-03T02:32:59.309Z,18.71
2016-12-03T02:33:58.981Z,18.71
2016-12-03T02:34:58.962Z,18.75
2016-12-03T02:35:59.267Z,18.75
2016-12-03T02:36:59.251Z,18.68
2016-12-03T02:37:58.918Z,18.72
2016-12-03T02:38:59.257Z,18.71
2016-12-03T02:39:59.192Z,18.74
2016-12-03T02:40:59.173Z,18.62
2016-12-03T02:41:59.407Z,18.71
2016-12-03T02:42:59.136Z,18.72
2016-12-03T02:43:59.125Z,18.72
2016-12-03T02:44:58.788Z,18.66
2016-12-03T02:45:59.091Z,18.74
2016-12-03T02:46:59.079Z,18.6
2016-12-03T02:47:59.062Z,18.64
2016-12-03T02:48:59.035Z,18.62
2016-12-03T02:49:59.024Z,18.69
2016-12-03T02:50:59.007Z,18.69
2016-12-03T02:51:58.998Z,18.65
2016-12-03T02:52:58.974Z,18.64
2016-12-03T02:53:58.957Z,18.71
2016-12-03T02:54:58.619Z,18.64
2016-12-03T02:55:58.644Z,18.6
2016-12-03T02:56:58.651Z,18.62
2016-12-03T02:57:58.888Z,18.69
2016-12-03T02:58:58.905Z,18.68
2016-12-03T02:59:58.534Z,18.69
2016-12-03T03:00:58.834Z,18.65
2016-12-03T03:01:58.505Z,18.54
2016-12-03T03:02:58.484Z,18.64
2016-12-03T03:03:58.468Z,18.59
2016-12-03T03:04:58.457Z,18.62
2016-12-03T03:05:58.758Z,18.64
2016-12-03T03:06:58.733Z,18.65
2016-12-03T03:07:58.404Z,18.64
2016-12-03T03:08:58.380Z,18.65
2016-12-03T03:09:58.735Z,18.62
2016-12-03T03:10:58.658Z,18.57
2016-12-03T03:11:58.643Z,18.64
2016-12-03T03:12:58.627Z,18.54
2016-12-03T03:13:58.292Z,18.68
2016-12-03T03:14:58.277Z,18.66
2016-12-03T03:15:58.574Z,18.59
2016-12-03T03:16:58.245Z,18.65
2016-12-03T03:17:58.229Z,18.62
2016-12-03T03:18:58.204Z,18.66
2016-12-03T03:19:58.515Z,18.54
2016-12-03T03:20:58.492Z,18.56
2016-12-03T03:21:58.474Z,18.57
2016-12-03T03:22:58.455Z,18.59
2016-12-03T03:23:58.442Z,18.51
2016-12-03T03:24:58.107Z,18.57
2016-12-03T03:25:58.409Z,18.57
2016-12-03T03:26:58.388Z,18.64
2016-12-03T03:27:58.053Z,18.54
2016-12-03T03:28:58.568Z,18.59
2016-12-03T03:29:58.262Z,18.56
2016-12-03T03:30:58.322Z,18.56
2016-12-03T03:31:58.300Z,18.54
2016-12-03T03:32:58.293Z,18.53
2016-12-03T03:33:58.510Z,18.54
2016-12-03T03:34:57.948Z,18.53
2016-12-03T03:35:58.251Z,18.54
2016-12-03T03:36:57.900Z,18.49
2016-12-03T03:37:58.201Z,18.62
2016-12-03T03:38:58.181Z,18.56
2016-12-03T03:39:58.168Z,18.54
2016-12-03T03:40:58.149Z,18.57
2016-12-03T03:41:57.887Z,18.6
2016-12-03T03:42:58.114Z,18.5
2016-12-03T03:43:58.099Z,18.5
2016-12-03T03:44:58.080Z,18.53
2016-12-03T03:45:58.067Z,18.57
2016-12-03T03:46:57.729Z,18.51
2016-12-03T03:47:58.036Z,18.54
2016-12-03T03:48:58.059Z,18.5
2016-12-03T03:49:57.876Z,18.53
2016-12-03T03:50:57.980Z,18.42
2016-12-03T03:51:57.648Z,18.59
2016-12-03T03:52:57.625Z,18.51
2016-12-03T03:53:57.930Z,18.5
2016-12-03T03:54:57.902Z,18.5
2016-12-03T03:55:57.885Z,18.46
2016-12-03T03:56:57.555Z,18.56
2016-12-03T03:57:57.855Z,18.53
2016-12-03T03:58:57.837Z,18.53
2016-12-03T03:59:57.512Z,18.5
2016-12-03T04:00:57.484Z,18.56
2016-12-03T04:01:57.471Z,18.51
2016-12-03T04:02:57.450Z,18.42
2016-12-03T04:03:57.754Z,18.41
2016-12-03T04:04:57.419Z,18.47
2016-12-03T04:05:57.407Z,18.42
2016-12-03T04:06:57.380Z,18.49
2016-12-03T04:07:57.683Z,18.38
2016-12-03T04:08:57.354Z,18.34
2016-12-03T04:09:57.332Z,18.34
2016-12-03T04:10:57.311Z,18.41
2016-12-03T04:11:57.628Z,18.44
2016-12-03T04:12:57.589Z,18.38
2016-12-03T04:13:57.573Z,18.34
2016-12-03T04:14:57.556Z,18.39
2016-12-03T04:15:57.539Z,18.44
2016-12-03T04:16:57.525Z,18.36
2016-12-03T04:17:57.506Z,18.42
2016-12-03T04:18:57.493Z,18.31
2016-12-03T04:19:57.159Z,18.39
2016-12-03T04:20:57.460Z,18.41
2016-12-03T04:21:57.492Z,18.41
2016-12-03T04:22:57.423Z,18.41
2016-12-03T04:23:57.404Z,18.39
2016-12-03T04:24:57.385Z,18.36
2016-12-03T04:25:57.367Z,18.36
2016-12-03T04:26:57.034Z,18.34
2016-12-03T04:27:57.061Z,18.32
2016-12-03T04:28:57.319Z,18.35
2016-12-03T04:29:57.298Z,18.36
2016-12-03T04:30:57.277Z,18.34
2016-12-03T04:31:57.263Z,18.36
2016-12-03T04:32:57.489Z,18.34
2016-12-03T04:33:57.227Z,18.28
2016-12-03T04:34:57.212Z,18.31
2016-12-03T04:35:57.195Z,18.35
2016-12-03T04:36:57.175Z,18.34
2016-12-03T04:37:57.164Z,18.34
2016-12-03T04:38:57.147Z,18.31
2016-12-03T04:39:57.026Z,18.32
2016-12-03T04:40:56.792Z,18.31
2016-12-03T04:41:56.777Z,18.34
2016-12-03T04:42:56.753Z,18.36
2016-12-03T04:43:57.053Z,18.29
2016-12-03T04:44:56.722Z,18.35
2016-12-03T04:45:57.260Z,18.28
2016-12-03T04:46:57.005Z,18.28
2016-12-03T04:47:56.990Z,18.34
2016-12-03T04:48:57.011Z,18.31
2016-12-03T04:49:56.955Z,18.31
2016-12-03T04:50:56.931Z,18.34
2016-12-03T04:51:56.920Z,18.34
2016-12-03T04:52:56.582Z,18.25
2016-12-03T04:53:56.877Z,18.28
2016-12-03T04:54:56.904Z,18.25
2016-12-03T04:55:56.534Z,18.28
2016-12-03T04:56:56.827Z,18.25
2016-12-03T04:57:56.500Z,18.28
2016-12-03T04:58:56.479Z,18.32
2016-12-03T04:59:56.467Z,18.29
2016-12-03T05:00:56.449Z,18.32
2016-12-03T05:01:56.956Z,18.32
2016-12-03T05:02:56.414Z,18.21
2016-12-03T05:03:56.398Z,18.26
2016-12-03T05:04:56.374Z,18.23
2016-12-03T05:05:56.356Z,18.32
2016-12-03T05:06:56.663Z,18.42
2016-12-03T05:07:56.637Z,18.49
2016-12-03T05:08:56.625Z,18.6
2016-12-03T05:09:57.299Z,18.65
2016-12-03T05:10:56.487Z,18.76
2016-12-03T05:11:56.571Z,18.82
2016-12-03T05:12:56.242Z,18.91
2016-12-03T05:13:56.217Z,18.99
2016-12-03T05:14:56.520Z,19.07
2016-12-03T05:15:56.550Z,19.12
2016-12-03T05:16:56.481Z,19.24
2016-12-03T05:17:56.466Z,19.17
2016-12-03T05:18:56.451Z,19.13
2016-12-03T05:19:56.123Z,19.3
2016-12-03T05:20:56.410Z,19.45
2016-12-03T05:21:56.397Z,19.43
2016-12-03T05:22:56.434Z,19.46
2016-12-03T05:23:56.364Z,19.53
2016-12-03T05:24:56.347Z,19.58
2016-12-03T05:25:56.334Z,19.58
2016-12-03T05:26:56.313Z,19.58
2016-12-03T05:27:56.300Z,19.71
2016-12-03T05:28:56.496Z,19.71
2016-12-03T05:29:55.946Z,19.7
2016-12-03T05:30:55.924Z,19.67
2016-12-03T05:31:56.241Z,19.71
2016-12-03T05:32:56.212Z,19.8
2016-12-03T05:33:56.192Z,19.78
2016-12-03T05:34:56.179Z,19.79
2016-12-03T05:35:56.154Z,19.83
2016-12-03T05:36:56.151Z,19.82
2016-12-03T05:37:56.125Z,19.79
2016-12-03T05:38:56.107Z,19.8
2016-12-03T05:39:56.097Z,19.82
2016-12-03T05:40:56.070Z,19.78
2016-12-03T05:41:56.259Z,19.83
2016-12-03T05:42:56.044Z,19.78
2016-12-03T05:43:56.020Z,19.83
2016-12-03T05:44:55.381Z,19.79
2016-12-03T05:45:55.987Z,19.82
2016-12-03T05:46:55.972Z,19.83
2016-12-03T05:47:55.641Z,19.85
2016-12-03T05:48:55.944Z,19.86
2016-12-03T05:49:55.921Z,19.82
2016-12-03T05:50:55.908Z,19.86
2016-12-03T05:51:55.573Z,19.9
2016-12-03T05:52:55.871Z,19.87
2016-12-03T05:53:55.852Z,19.95
2016-12-03T05:54:55.525Z,19.95
2016-12-03T05:55:55.818Z,19.95
2016-12-03T05:56:55.806Z,19.86
2016-12-03T05:57:55.796Z,19.94
2016-12-03T05:58:55.782Z,20
2016-12-03T05:59:55.755Z,20
2016-12-03T06:00:55.417Z,20.01
2016-12-03T06:01:55.724Z,19.95
2016-12-03T06:02:55.703Z,19.94
2016-12-03T06:03:55.684Z,19.89
2016-12-03T06:04:55.670Z,19.98
2016-12-03T06:05:55.658Z,19.97
2016-12-03T06:06:55.631Z,19.94
2016-12-03T06:07:55.618Z,19.9
2016-12-03T06:08:55.612Z,19.95
2016-12-03T06:09:55.587Z,19.92
2016-12-03T06:10:55.793Z,19.98
2016-12-03T06:11:55.559Z,19.94
2016-12-03T06:12:55.533Z,19.98
2016-12-03T06:13:55.516Z,19.98
2016-12-03T06:14:55.505Z,19.98
2016-12-03T06:15:55.489Z,20.01
2016-12-03T06:16:55.472Z,20.1
2016-12-03T06:17:55.453Z,20.1
2016-12-03T06:18:55.118Z,20.12
2016-12-03T06:19:55.100Z,20.15
2016-12-03T06:20:55.404Z,20.05
2016-12-03T06:21:55.396Z,20.08
2016-12-03T06:22:55.368Z,20.17
2016-12-03T06:23:55.350Z,20.15
2016-12-03T06:24:55.335Z,20.1
2016-12-03T06:25:55.000Z,20.1
2016-12-03T06:26:55.301Z,20.15
2016-12-03T06:27:54.993Z,20.17
2016-12-03T06:28:55.266Z,20.17
2016-12-03T06:29:55.251Z,20.22
2016-12-03T06:30:55.274Z,20.31
2016-12-03T06:31:55.215Z,20.2
2016-12-03T06:32:55.199Z,20.19
2016-12-03T06:33:54.866Z,20.17
2016-12-03T06:34:55.171Z,20.22
2016-12-03T06:35:55.170Z,20.17
2016-12-03T06:36:55.138Z,20.2
2016-12-03T06:37:55.118Z,20.22
2016-12-03T06:38:55.104Z,20.22
2016-12-03T06:39:55.317Z,20.23
2016-12-03T06:40:55.066Z,20.22
2016-12-03T06:41:55.081Z,20.25
2016-12-03T06:42:55.036Z,20.26
2016-12-03T06:43:55.024Z,20.25
2016-12-03T06:44:55.035Z,20.23
2016-12-03T06:45:54.356Z,20.27
2016-12-03T06:46:54.967Z,20.26
2016-12-03T06:47:54.956Z,20.31
2016-12-03T06:48:54.939Z,20.3
2016-12-03T06:49:54.609Z,20.26
2016-12-03T06:50:54.585Z,20.33
2016-12-03T06:51:54.259Z,20.25
2016-12-03T06:52:54.873Z,20.33
2016-12-03T06:53:54.541Z,20.3
2016-12-03T06:54:54.839Z,20.27
2016-12-03T06:55:54.821Z,20.33
2016-12-03T06:56:54.846Z,20.3
2016-12-03T06:57:54.787Z,20.34
2016-12-03T06:58:54.462Z,20.3
2016-12-03T06:59:54.761Z,20.34
2016-12-03T07:00:54.743Z,20.33
2016-12-03T07:01:54.415Z,20.34
2016-12-03T07:02:54.707Z,20.35
2016-12-03T07:03:54.692Z,20.25
2016-12-03T07:04:54.363Z,20.33
2016-12-03T07:05:54.880Z,20.34
2016-12-03T07:06:54.643Z,20.37
2016-12-03T07:07:54.630Z,20.37
2016-12-03T07:08:54.621Z,20.34
2016-12-03T07:09:54.279Z,20.4
2016-12-03T07:10:54.608Z,20.38
2016-12-03T07:11:54.570Z,20.34
2016-12-03T07:12:54.226Z,20.35
2016-12-03T07:13:54.213Z,20.31
2016-12-03T07:14:54.515Z,20.34
2016-12-03T07:15:54.499Z,20.42
2016-12-03T07:16:54.479Z,20.38
2016-12-03T07:17:54.472Z,20.34
2016-12-03T07:18:54.451Z,20.42
2016-12-03T07:19:54.429Z,20.35
2016-12-03T07:20:54.420Z,20.48
2016-12-03T07:21:54.400Z,20.42
2016-12-03T07:22:54.069Z,20.51
2016-12-03T07:23:54.368Z,20.44
2016-12-03T07:24:54.354Z,20.48
2016-12-03T07:25:54.346Z,20.51
2016-12-03T07:26:54.001Z,20.48
2016-12-03T07:27:53.985Z,20.51
2016-12-03T07:28:53.968Z,20.53
2016-12-03T07:29:54.267Z,20.53
2016-12-03T07:30:54.253Z,20.5
2016-12-03T07:31:53.927Z,20.48
2016-12-03T07:32:54.217Z,20.48
2016-12-03T07:33:54.210Z,20.53
2016-12-03T07:34:54.196Z,20.5
2016-12-03T07:35:54.170Z,20.48
2016-12-03T07:36:54.157Z,20.53
2016-12-03T07:37:53.826Z,20.41
2016-12-03T07:38:54.125Z,20.5
2016-12-03T07:39:54.106Z,20.5
2016-12-03T07:40:54.085Z,20.51
2016-12-03T07:41:53.764Z,20.54
2016-12-03T07:42:54.057Z,20.46
2016-12-03T07:43:54.039Z,20.57
2016-12-03T07:44:54.024Z,20.63
2016-12-03T07:45:54.007Z,20.48
2016-12-03T07:46:53.988Z,20.56
2016-12-03T07:47:53.975Z,20.63
2016-12-03T07:48:53.648Z,20.54
2016-12-03T07:49:53.944Z,20.61
2016-12-03T07:50:53.948Z,20.63
2016-12-03T07:51:53.910Z,20.63
2016-12-03T07:52:53.905Z,20.64
2016-12-03T07:53:53.879Z,20.58
2016-12-03T07:54:53.553Z,20.68
2016-12-03T07:55:53.532Z,20.64
2016-12-03T07:56:53.513Z,20.68
2016-12-03T07:57:53.810Z,20.64
2016-12-03T07:58:53.797Z,20.63
2016-12-03T07:59:53.783Z,20.64
2016-12-03T08:00:53.760Z,20.64
2016-12-03T08:01:53.749Z,20.61
2016-12-03T08:02:53.734Z,20.61
2016-12-03T08:03:53.398Z,20.6
2016-12-03T08:04:53.699Z,20.53
2016-12-03T08:05:53.378Z,20.44
2016-12-03T08:06:53.667Z,20.4
2016-12-03T08:07:53.656Z,20.48
2016-12-03T08:08:53.318Z,20.46
2016-12-03T08:09:53.309Z,20.53
2016-12-03T08:10:53.600Z,20.5
2016-12-03T08:11:53.591Z,20.5
2016-12-03T08:12:53.258Z,20.6
2016-12-03T08:13:53.550Z,20.63
2016-12-03T08:14:53.219Z,20.64
2016-12-03T08:15:53.530Z,20.69
2016-12-03T08:16:53.421Z,20.69
2016-12-03T08:17:53.486Z,20.66
2016-12-03T08:18:53.183Z,20.72
2016-12-03T08:19:53.458Z,20.75
2016-12-03T08:20:53.443Z,20.73
2016-12-03T08:21:53.422Z,20.64
2016-12-03T08:22:53.410Z,20.73
2016-12-03T08:23:53.079Z,20.73
2016-12-03T08:24:53.378Z,20.75
2016-12-03T08:25:53.355Z,20.72
2016-12-03T08:26:53.383Z,20.68
2016-12-03T08:27:53.333Z,20.72
2016-12-03T08:28:53.317Z,20.73
2016-12-03T08:29:53.299Z,20.75
2016-12-03T08:30:53.277Z,20.76
2016-12-03T08:31:52.943Z,20.72
2016-12-03T08:32:52.927Z,20.75
2016-12-03T08:33:53.283Z,20.76
2016-12-03T08:34:53.213Z,20.79
2016-12-03T08:35:53.209Z,20.68
2016-12-03T08:36:53.207Z,20.75
2016-12-03T08:37:52.851Z,20.79
2016-12-03T08:38:53.155Z,20.79
2016-12-03T08:39:52.812Z,20.76
2016-12-03T08:40:53.166Z,20.71
2016-12-03T08:41:53.101Z,20.81
2016-12-03T08:42:52.768Z,20.72
2016-12-03T08:43:53.071Z,20.83
2016-12-03T08:44:53.057Z,20.76
2016-12-03T08:45:53.032Z,20.79
2016-12-03T08:46:53.049Z,20.73
2016-12-03T08:47:53.004Z,20.78
2016-12-03T08:48:53.014Z,20.78
2016-12-03T08:49:52.662Z,20.76
2016-12-03T08:50:52.964Z,20.85
2016-12-03T08:51:52.939Z,20.78
2016-12-03T08:52:52.603Z,20.83
2016-12-03T08:53:52.602Z,20.79
2016-12-03T08:54:52.889Z,20.78
2016-12-03T08:55:52.898Z,20.79
2016-12-03T08:56:52.866Z,20.83
2016-12-03T08:57:52.533Z,20.79
2016-12-03T08:58:52.510Z,20.87
2016-12-03T08:59:52.496Z,20.85
2016-12-03T09:00:52.796Z,20.87
2016-12-03T09:01:52.460Z,20.88
2016-12-03T09:02:52.757Z,20.93
2016-12-03T09:03:52.432Z,20.83
2016-12-03T09:04:52.733Z,20.87
2016-12-03T09:05:52.712Z,20.83
2016-12-03T09:06:52.694Z,20.83
2016-12-03T09:07:52.684Z,20.85
2016-12-03T09:08:52.348Z,20.88
2016-12-03T09:09:52.331Z,20.91
2016-12-03T09:10:52.850Z,20.85
2016-12-03T09:11:52.310Z,20.91
2016-12-03T09:12:52.612Z,20.88
2016-12-03T09:13:52.265Z,20.91
2016-12-03T09:14:52.567Z,20.93
2016-12-03T09:15:52.558Z,20.82
2016-12-03T09:16:52.532Z,20.83
2016-12-03T09:17:52.521Z,20.9
2016-12-03T09:18:52.510Z,20.87
2016-12-03T09:19:52.489Z,20.91
2016-12-03T09:20:52.470Z,20.85
2016-12-03T09:21:52.134Z,20.87
2016-12-03T09:22:52.121Z,20.91
2016-12-03T09:23:52.454Z,20.9
2016-12-03T09:24:52.404Z,20.93
2016-12-03T09:25:52.396Z,20.94
2016-12-03T09:26:52.413Z,20.96
2016-12-03T09:27:52.356Z,20.85
2016-12-03T09:28:52.340Z,20.83
2016-12-03T09:29:52.327Z,20.85
2016-12-03T09:30:52.307Z,20.88
2016-12-03T09:31:52.296Z,20.93
2016-12-03T09:32:51.961Z,20.91
2016-12-03T09:33:52.262Z,20.88
2016-12-03T09:34:52.247Z,20.93
2016-12-03T09:35:51.913Z,20.97
2016-12-03T09:36:51.898Z,21
2016-12-03T09:37:52.195Z,20.85
2016-12-03T09:38:51.901Z,21
2016-12-03T09:39:52.163Z,20.98
2016-12-03T09:40:52.151Z,20.96
2016-12-03T09:41:52.144Z,20.96
2016-12-03T09:42:51.799Z,20.85
2016-12-03T09:43:51.478Z,20.88
2016-12-03T09:44:52.303Z,20.87
2016-12-03T09:45:52.086Z,20.96
2016-12-03T09:46:52.052Z,20.97
2016-12-03T09:47:52.035Z,20.85
2016-12-03T09:48:52.060Z,20.98
2016-12-03T09:49:52.004Z,20.85
2016-12-03T09:50:51.987Z,20.97
2016-12-03T09:51:51.974Z,20.85
2016-12-03T09:52:51.958Z,20.93
2016-12-03T09:53:51.949Z,20.9
2016-12-03T09:54:51.964Z,20.85
2016-12-03T09:55:51.276Z,20.96
2016-12-03T09:56:51.889Z,20.93
2016-12-03T09:57:51.881Z,20.93
2016-12-03T09:58:51.859Z,20.93
2016-12-03T09:59:51.845Z,20.97
2016-12-03T10:00:51.830Z,20.87
2016-12-03T10:01:51.813Z,20.91
2016-12-03T10:02:51.487Z,20.94
2016-12-03T10:03:51.780Z,20.91
2016-12-03T10:04:51.449Z,20.91
2016-12-03T10:05:51.748Z,20.98
2016-12-03T10:06:51.740Z,20.97
2016-12-03T10:07:51.745Z,20.9
2016-12-03T10:08:51.702Z,20.91
2016-12-03T10:09:51.689Z,20.9
2016-12-03T10:10:51.669Z,20.94
2016-12-03T10:11:51.644Z,20.93
2016-12-03T10:12:51.633Z,20.94
2016-12-03T10:13:51.618Z,20.93
2016-12-03T10:14:51.602Z,20.96
2016-12-03T10:15:51.587Z,20.96
2016-12-03T10:16:51.612Z,20.96
2016-12-03T10:17:51.242Z,20.96
2016-12-03T10:18:51.549Z,20.94
2016-12-03T10:19:51.580Z,20.93
2016-12-03T10:20:51.504Z,20.96
2016-12-03T10:21:51.175Z,20.98
2016-12-03T10:22:51.472Z,20.96
2016-12-03T10:23:51.463Z,20.94
2016-12-03T10:24:51.441Z,20.93
2016-12-03T10:25:51.426Z,20.93
2016-12-03T10:26:51.407Z,20.93
2016-12-03T10:27:51.079Z,20.91
2016-12-03T10:28:51.384Z,20.93
2016-12-03T10:29:51.365Z,20.91
2016-12-03T10:30:51.343Z,20.9
2016-12-03T10:31:51.348Z,20.91
2016-12-03T10:32:51.309Z,20.94
2016-12-03T10:33:50.979Z,20.94
2016-12-03T10:34:50.969Z,20.94
2016-12-03T10:35:51.264Z,20.93
2016-12-03T10:36:51.255Z,20.91
2016-12-03T10:37:51.238Z,20.96
2016-12-03T10:38:51.214Z,20.91
2016-12-03T10:39:51.207Z,20.94
2016-12-03T10:40:51.188Z,20.98
2016-12-03T10:41:51.170Z,20.96
2016-12-03T10:42:51.152Z,20.94
2016-12-03T10:43:51.167Z,21.01
2016-12-03T10:44:51.128Z,20.93
2016-12-03T10:45:50.473Z,20.94
2016-12-03T10:46:51.093Z,20.97
2016-12-03T10:47:51.083Z,20.94
2016-12-03T10:48:50.743Z,20.94
2016-12-03T10:49:51.041Z,20.94
2016-12-03T10:50:51.025Z,20.96
2016-12-03T10:51:51.012Z,20.93
2016-12-03T10:52:50.997Z,20.9
2016-12-03T10:53:51.172Z,21
2016-12-03T10:54:50.956Z,20.93
2016-12-03T10:55:50.945Z,20.94
2016-12-03T10:56:50.929Z,20.96
2016-12-03T10:57:50.910Z,20.97
2016-12-03T10:58:50.895Z,20.94
2016-12-03T10:59:50.881Z,20.93
2016-12-03T11:00:50.865Z,20.98
2016-12-03T11:01:50.857Z,21.01
2016-12-03T11:02:50.832Z,21
2016-12-03T11:03:50.846Z,20.98
2016-12-03T11:04:50.490Z,20.98
2016-12-03T11:05:50.492Z,20.96
2016-12-03T11:06:50.484Z,20.96
2016-12-03T11:07:50.759Z,20.98
2016-12-03T11:08:50.424Z,21
2016-12-03T11:09:50.721Z,21.03
2016-12-03T11:10:50.709Z,20.97
2016-12-03T11:11:50.930Z,21.01
2016-12-03T11:12:50.670Z,20.96
2016-12-03T11:13:50.653Z,20.96
2016-12-03T11:14:50.642Z,21
2016-12-03T11:15:50.306Z,20.98
2016-12-03T11:16:50.004Z,21.01
2016-12-03T11:17:50.598Z,21.05
2016-12-03T11:18:50.576Z,20.96
2016-12-03T11:19:50.611Z,20.98
2016-12-03T11:20:50.544Z,21.01
2016-12-03T11:21:50.527Z,21.03
2016-12-03T11:22:50.509Z,21.01
2016-12-03T11:23:50.500Z,20.96
2016-12-03T11:24:50.161Z,21
2016-12-03T11:25:50.149Z,21
2016-12-03T11:26:50.453Z,21.05
2016-12-03T11:27:50.429Z,21
2016-12-03T11:28:50.103Z,21.05
2016-12-03T11:29:50.397Z,20.97
2016-12-03T11:30:50.382Z,20.98
2016-12-03T11:31:50.055Z,21.01
2016-12-03T11:32:50.357Z,21.03
2016-12-03T11:33:50.345Z,20.97
2016-12-03T11:34:50.575Z,21
2016-12-03T11:35:50.304Z,20.96
2016-12-03T11:36:50.289Z,21
2016-12-03T11:37:50.278Z,21.01
2016-12-03T11:38:50.262Z,21.01
2016-12-03T11:39:49.927Z,20.94
2016-12-03T11:40:50.234Z,21.03
2016-12-03T11:41:50.245Z,20.96
2016-12-03T11:42:50.199Z,20.97
2016-12-03T11:43:49.864Z,20.94
2016-12-03T11:44:49.844Z,20.98
2016-12-03T11:45:50.147Z,21.01
2016-12-03T11:46:50.135Z,21
2016-12-03T11:47:50.139Z,21.01
2016-12-03T11:48:50.104Z,20.97
2016-12-03T11:49:50.115Z,20.96
2016-12-03T11:50:49.752Z,20.98
2016-12-03T11:51:50.055Z,20.94
2016-12-03T11:52:50.036Z,21
2016-12-03T11:53:49.394Z,20.94
2016-12-03T11:54:49.685Z,20.98
2016-12-03T11:55:50.032Z,21.05
2016-12-03T11:56:49.983Z,21.01
2016-12-03T11:57:49.959Z,20.98
2016-12-03T11:58:50.176Z,21.11
2016-12-03T11:59:49.934Z,21.12
2016-12-03T12:00:49.907Z,21.12
2016-12-03T12:01:49.900Z,21.12
2016-12-03T12:02:49.873Z,21.16
2016-12-03T12:03:49.544Z,21.15
2016-12-03T12:04:49.872Z,21.12
2016-12-03T12:05:49.515Z,21.16
2016-12-03T12:06:49.812Z,21.15
2016-12-03T12:07:49.485Z,21.12
2016-12-03T12:08:49.475Z,21.19
2016-12-03T12:09:49.454Z,21
2016-12-03T12:10:49.753Z,20.97
2016-12-03T12:11:49.738Z,20.9
2016-12-03T12:12:49.725Z,20.91
2016-12-03T12:13:49.704Z,20.94
2016-12-03T12:14:49.692Z,21.01
2016-12-03T12:15:49.679Z,21.05
2016-12-03T12:16:49.664Z,21.08
2016-12-03T12:17:49.643Z,21.16
2016-12-03T12:18:49.624Z,21.18
2016-12-03T12:19:49.293Z,21.15
2016-12-03T12:20:49.596Z,21.06
2016-12-03T12:21:48.945Z,21.11
2016-12-03T12:22:49.574Z,21.18
2016-12-03T12:23:49.550Z,21.13
2016-12-03T12:24:49.215Z,21.16
2016-12-03T12:25:49.521Z,21.16
2016-12-03T12:26:49.183Z,21.16
2016-12-03T12:27:49.490Z,21.16
2016-12-03T12:28:49.472Z,21.09
2016-12-03T12:29:49.188Z,21.13
2016-12-03T12:30:49.436Z,21.12
2016-12-03T12:31:49.419Z,21.16
2016-12-03T12:32:49.090Z,21.13
2016-12-03T12:33:49.392Z,21.09
2016-12-03T12:34:49.376Z,21.16
2016-12-03T12:35:49.357Z,21.12
2016-12-03T12:36:49.573Z,21.15
2016-12-03T12:37:49.327Z,21.13
2016-12-03T12:38:49.311Z,19.68
2016-12-03T12:39:48.664Z,18.71
2016-12-03T12:40:48.968Z,17.84
2016-12-03T12:41:49.262Z,16.96
2016-12-03T12:42:49.245Z,16.36
2016-12-03T12:43:48.917Z,15.92
2016-12-03T12:44:48.904Z,15.67
2016-12-03T12:45:49.203Z,15.67
2016-12-03T12:46:49.188Z,15.27
2016-12-03T12:47:49.172Z,15.01
2016-12-03T12:48:49.156Z,15
2016-12-03T12:49:49.135Z,15.85
2016-12-03T12:50:49.121Z,16.9
2016-12-03T12:51:48.799Z,17.71
2016-12-03T12:52:48.788Z,18.32
2016-12-03T12:53:49.069Z,18.74
2016-12-03T12:54:48.436Z,19.1
2016-12-03T12:55:49.042Z,19.28